Thursday, August 16, 2018, 9:57 AM EDT
Back to Local

KACK, Nantucket Memorial Airport

Location: Nantucket, MA, United States Lat: 41.25
Local Time: 9:57 AM EDT (13:57 GMT) Lon: -70.067
Time Zone: US/Eastern Elev: 49 ft

Show me the last for .
Show Coded

Time T Td Feel RH Dir Speed Gust Alt SLP Vis Weather Sky Remarks
2018-08-16 08:53 81 71 86 71 290° 8 - 29.99 29.99 10 CLR None
2018-08-16 07:53 76 71 80 84 280° 7 - 29.99 29.99 10 CLR 6-hr Min Temp (8am): 72.0°F
6-hr Max Temp (8am): 75.9°F
2018-08-16 06:53 73 71 77 93 270° 7 - 29.97 29.97 10 CLR None
2018-08-16 05:53 72 70 76 93 280° 9 - 29.96 29.96 8 CLR None
2018-08-16 04:53 72 70 76 93 260° 10 - 29.94 29.94 9 CLR None
2018-08-16 03:53 73 71 77 93 270° 12 - 29.94 29.94 9 CLR None
2018-08-16 02:53 72 71 77 97 250° 8 - 29.93 29.93 8 CLR None
2018-08-16 01:53 72 70 76 93 260° 8 - 29.93 29.93 9 CLR 6-hr Min Temp (2am): 72.0°F
6-hr Max Temp (2am): 75.0°F
2018-08-16 00:53 73 70 77 90 270° 10 - 29.93 29.93 10 CLR 24-hr Min Temp (1am): 70.0°F
24-hr Max Temp (1am): 80.1°F
2018-08-15 23:53 74 70 78 87 270° 12 - 29.93 29.93 10 CLR None
2018-08-15 22:53 74 71 78 90 270° 14 - 29.93 29.93 10 CLR None
2018-08-15 21:53 74 72 78 93 260° 13 - 29.93 29.92 10 CLR None
2018-08-15 20:53 74 72 78 93 250° 9 - 29.90 29.90 10 CLR None
2018-08-15 19:53 74 71 78 90 250° 10 - 29.88 29.88 10 CLR 6-hr Min Temp (8pm): 73.9°F
6-hr Max Temp (8pm): 80.1°F
2018-08-15 18:53 76 72 80 87 250° 12 - 29.86 29.86 10 CLR None
2018-08-15 17:53 77 71 81 81 260° 13 - 29.86 29.86 10 CLR None
2018-08-15 16:53 78 70 82 76 260° 20 24 29.86 29.86 10 CLR None
2018-08-15 15:53 79 70 83 74 260° 15 - 29.86 29.86 10 CLR None
2018-08-15 14:53 79 68 82 69 250° 15 - 29.86 29.85 10 CLR None
2018-08-15 13:53 79 70 83 74 250° 17 23 29.86 29.86 10 FEW039 6-hr Precip Total (2pm): 0.00"
6-hr Min Temp (2pm): 71.1°F
6-hr Max Temp (2pm): 80.1°F
2018-08-15 12:53 79 70 83 74 260° 14 - 29.85 29.85 10 FEW013 None
2018-08-15 11:53 78 71 82 79 230° 15 - 29.85 29.85 10 SCT013 None
2018-08-15 10:53 75 71 79 87 210° 13 - 29.85 29.85 10 FEW020 6-hr Precip Total (11am): 0.00"

Support USWX by starting your Amazon purchase here.